Terminal Aerodrome Forecast
Issued by NWS

Home | Current Version | Previous Version | Graphics & Text | Print | Product List | Glossary On
Versions: 1 2 3 4 5 6 7 8 9 10 11 12 13 14 15
000
FTUS43 KMPX 010328 AAA
TAFAXN
TAF AMD
KAXN 010328Z 0103/0124 20009KT 6SM -SN OVC070
     FM010500 27008KT P6SM SCT025 BKN150
     FM011300 28009KT P6SM SCT150=

USA.gov is the U.S. government's official web portal to all federal, state and local government web resources and services.